sensor_id;sensor_type;location;lat;lon;timestamp;P1;durP1;ratioP1;P2;durP2;ratioP2
18661;SDS011;61528;49.456;11.098;2022-08-27T00:01:02;13.77;;;10.97;;
18661;SDS011;61528;49.456;11.098;2022-08-27T00:03:28;14.90;;;10.20;;
18661;SDS011;61528;49.456;11.098;2022-08-27T00:05:54;13.77;;;9.97;;
18661;SDS011;61528;49.456;11.098;2022-08-27T00:08:21;11.37;;;10.27;;
18661;SDS011;61528;49.456;11.098;2022-08-27T00:10:46;11.80;;;9.93;;
18661;SDS011;61528;49.456;11.098;2022-08-27T00:13:12;13.83;;;11.07;;
18661;SDS011;61528;49.456;11.098;2022-08-27T00:15:40;10.43;;;9.27;;
18661;SDS011;61528;49.456;11.098;2022-08-27T00:18:06;10.77;;;8.63;;
18661;SDS011;61528;49.456;11.098;2022-08-27T00:20:32;11.70;;;9.00;;
18661;SDS011;61528;49.456;11.098;2022-08-27T00:22:58;9.47;;;8.27;;
18661;SDS011;61528;49.456;11.098;2022-08-27T00:25:24;8.67;;;7.80;;
18661;SDS011;61528;49.456;11.098;2022-08-27T00:27:50;8.63;;;7.83;;
18661;SDS011;61528;49.456;11.098;2022-08-27T00:30:16;8.57;;;7.63;;
18661;SDS011;61528;49.456;11.098;2022-08-27T00:32:44;7.97;;;7.17;;
18661;SDS011;61528;49.456;11.098;2022-08-27T00:35:10;9.00;;;7.60;;
18661;SDS011;61528;49.456;11.098;2022-08-27T00:37:36;8.30;;;7.43;;
18661;SDS011;61528;49.456;11.098;2022-08-27T00:40:03;10.60;;;7.87;;
18661;SDS011;61528;49.456;11.098;2022-08-27T00:42:31;8.27;;;7.47;;
18661;SDS011;61528;49.456;11.098;2022-08-27T00:44:57;11.93;;;8.40;;
18661;SDS011;61528;49.456;11.098;2022-08-27T00:47:24;8.67;;;7.77;;
18661;SDS011;61528;49.456;11.098;2022-08-27T00:49:53;8.30;;;7.50;;
18661;SDS011;61528;49.456;11.098;2022-08-27T00:54:57;10.03;;;7.97;;
18661;SDS011;61528;49.456;11.098;2022-08-27T00:57:26;10.57;;;7.67;;
18661;SDS011;61528;49.456;11.098;2022-08-27T00:59:54;9.80;;;8.60;;
18661;SDS011;61528;49.456;11.098;2022-08-27T01:02:20;9.37;;;8.37;;
18661;SDS011;61528;49.456;11.098;2022-08-27T01:04:52;10.13;;;9.00;;
18661;SDS011;61528;49.456;11.098;2022-08-27T01:07:28;10.90;;;8.53;;
18661;SDS011;61528;49.456;11.098;2022-08-27T01:09:57;11.03;;;8.80;;
18661;SDS011;61528;49.456;11.098;2022-08-27T01:12:25;9.40;;;8.40;;
18661;SDS011;61528;49.456;11.098;2022-08-27T01:14:54;11.13;;;7.97;;
18661;SDS011;61528;49.456;11.098;2022-08-27T01:17:20;9.10;;;8.13;;
18661;SDS011;61528;49.456;11.098;2022-08-27T01:19:49;10.97;;;8.27;;
18661;SDS011;61528;49.456;11.098;2022-08-27T01:25:16;10.33;;;8.67;;
18661;SDS011;61528;49.456;11.098;2022-08-27T01:27:43;10.20;;;8.57;;
18661;SDS011;61528;49.456;11.098;2022-08-27T01:30:11;8.83;;;7.93;;
18661;SDS011;61528;49.456;11.098;2022-08-27T01:32:41;9.60;;;8.57;;
18661;SDS011;61528;49.456;11.098;2022-08-27T01:35:08;9.47;;;8.20;;
18661;SDS011;61528;49.456;11.098;2022-08-27T01:37:35;9.77;;;8.60;;
18661;SDS011;61528;49.456;11.098;2022-08-27T01:40:02;13.17;;;8.40;;
18661;SDS011;61528;49.456;11.098;2022-08-27T01:42:42;13.17;;;8.97;;
18661;SDS011;61528;49.456;11.098;2022-08-27T01:45:22;11.20;;;9.27;;
18661;SDS011;61528;49.456;11.098;2022-08-27T01:47:50;10.23;;;9.23;;
18661;SDS011;61528;49.456;11.098;2022-08-27T01:50:19;10.77;;;9.07;;
18661;SDS011;61528;49.456;11.098;2022-08-27T01:52:47;10.13;;;8.97;;
18661;SDS011;61528;49.456;11.098;2022-08-27T01:55:15;10.83;;;9.67;;
18661;SDS011;61528;49.456;11.098;2022-08-27T01:57:42;10.53;;;9.07;;
18661;SDS011;61528;49.456;11.098;2022-08-27T02:00:10;10.23;;;9.33;;
18661;SDS011;61528;49.456;11.098;2022-08-27T02:02:46;9.20;;;8.10;;
18661;SDS011;61528;49.456;11.098;2022-08-27T02:05:12;9.73;;;8.37;;
18661;SDS011;61528;49.456;11.098;2022-08-27T02:07:39;10.17;;;8.43;;
18661;SDS011;61528;49.456;11.098;2022-08-27T02:10:07;9.60;;;8.60;;
18661;SDS011;61528;49.456;11.098;2022-08-27T02:12:34;10.17;;;8.30;;
18661;SDS011;61528;49.456;11.098;2022-08-27T02:15:00;10.27;;;8.60;;
18661;SDS011;61528;49.456;11.098;2022-08-27T02:17:26;10.77;;;8.30;;
18661;SDS011;61528;49.456;11.098;2022-08-27T02:19:52;12.37;;;10.20;;
18661;SDS011;61528;49.456;11.098;2022-08-27T02:22:18;11.87;;;10.20;;
18661;SDS011;61528;49.456;11.098;2022-08-27T02:24:44;11.30;;;10.10;;
18661;SDS011;61528;49.456;11.098;2022-08-27T02:27:09;13.60;;;10.80;;
18661;SDS011;61528;49.456;11.098;2022-08-27T02:29:36;11.83;;;10.67;;
18661;SDS011;61528;49.456;11.098;2022-08-27T02:32:02;12.90;;;10.87;;
18661;SDS011;61528;49.456;11.098;2022-08-27T02:34:28;12.37;;;10.70;;
18661;SDS011;61528;49.456;11.098;2022-08-27T02:36:54;11.83;;;10.63;;
18661;SDS011;61528;49.456;11.098;2022-08-27T02:39:20;12.90;;;10.83;;
18661;SDS011;61528;49.456;11.098;2022-08-27T02:41:46;13.93;;;11.17;;
18661;SDS011;61528;49.456;11.098;2022-08-27T02:44:12;14.03;;;10.47;;
18661;SDS011;61528;49.456;11.098;2022-08-27T02:46:38;11.93;;;10.67;;
18661;SDS011;61528;49.456;11.098;2022-08-27T02:49:05;13.33;;;11.40;;
18661;SDS011;61528;49.456;11.098;2022-08-27T02:51:33;13.47;;;11.30;;
18661;SDS011;61528;49.456;11.098;2022-08-27T02:54:00;12.53;;;11.07;;
18661;SDS011;61528;49.456;11.098;2022-08-27T02:56:27;13.80;;;11.10;;
18661;SDS011;61528;49.456;11.098;2022-08-27T02:58:53;14.87;;;11.13;;
18661;SDS011;61528;49.456;11.098;2022-08-27T03:01:19;13.97;;;11.77;;
18661;SDS011;61528;49.456;11.098;2022-08-27T03:03:45;11.37;;;10.27;;
18661;SDS011;61528;49.456;11.098;2022-08-27T03:06:11;12.67;;;10.40;;
18661;SDS011;61528;49.456;11.098;2022-08-27T03:08:37;12.00;;;10.57;;
18661;SDS011;61528;49.456;11.098;2022-08-27T03:11:03;14.00;;;9.77;;
18661;SDS011;61528;49.456;11.098;2022-08-27T03:13:34;11.17;;;9.53;;
18661;SDS011;61528;49.456;11.098;2022-08-27T03:16:02;10.30;;;9.10;;
18661;SDS011;61528;49.456;11.098;2022-08-27T03:18:28;10.67;;;8.90;;
18661;SDS011;61528;49.456;11.098;2022-08-27T03:20:56;12.90;;;9.87;;
18661;SDS011;61528;49.456;11.098;2022-08-27T03:23:25;11.23;;;10.03;;
18661;SDS011;61528;49.456;11.098;2022-08-27T03:25:55;12.73;;;10.50;;
18661;SDS011;61528;49.456;11.098;2022-08-27T03:28:23;12.23;;;9.90;;
18661;SDS011;61528;49.456;11.098;2022-08-27T03:30:54;11.17;;;9.57;;
18661;SDS011;61528;49.456;11.098;2022-08-27T03:33:24;12.43;;;9.90;;
18661;SDS011;61528;49.456;11.098;2022-08-27T03:35:51;10.70;;;9.60;;
18661;SDS011;61528;49.456;11.098;2022-08-27T03:38:17;11.57;;;10.37;;
18661;SDS011;61528;49.456;11.098;2022-08-27T03:40:43;11.70;;;10.43;;
18661;SDS011;61528;49.456;11.098;2022-08-27T03:43:13;13.77;;;10.63;;
18661;SDS011;61528;49.456;11.098;2022-08-27T03:45:42;11.37;;;10.03;;
18661;SDS011;61528;49.456;11.098;2022-08-27T03:48:10;13.23;;;11.90;;
18661;SDS011;61528;49.456;11.098;2022-08-27T03:50:39;13.80;;;12.10;;
18661;SDS011;61528;49.456;11.098;2022-08-27T03:53:08;15.83;;;12.20;;
18661;SDS011;61528;49.456;11.098;2022-08-27T03:55:36;15.07;;;12.67;;
18661;SDS011;61528;49.456;11.098;2022-08-27T03:58:02;16.53;;;12.30;;
18661;SDS011;61528;49.456;11.098;2022-08-27T04:00:28;13.53;;;11.87;;
18661;SDS011;61528;49.456;11.098;2022-08-27T04:02:54;13.13;;;11.73;;
18661;SDS011;61528;49.456;11.098;2022-08-27T04:05:20;12.50;;;10.90;;
18661;SDS011;61528;49.456;11.098;2022-08-27T04:07:47;13.83;;;10.87;;
18661;SDS011;61528;49.456;11.098;2022-08-27T04:10:14;12.53;;;10.67;;
18661;SDS011;61528;49.456;11.098;2022-08-27T04:12:40;12.83;;;11.00;;
18661;SDS011;61528;49.456;11.098;2022-08-27T04:15:07;11.40;;;10.20;;
18661;SDS011;61528;49.456;11.098;2022-08-27T04:17:34;13.70;;;11.00;;
18661;SDS011;61528;49.456;11.098;2022-08-27T04:20:00;14.17;;;10.67;;
18661;SDS011;61528;49.456;11.098;2022-08-27T04:22:26;10.97;;;9.53;;
18661;SDS011;61528;49.456;11.098;2022-08-27T04:24:53;10.67;;;9.30;;
18661;SDS011;61528;49.456;11.098;2022-08-27T04:27:19;10.83;;;9.30;;
18661;SDS011;61528;49.456;11.098;2022-08-27T04:29:45;12.50;;;10.00;;
18661;SDS011;61528;49.456;11.098;2022-08-27T04:32:11;11.23;;;9.50;;
18661;SDS011;61528;49.456;11.098;2022-08-27T04:34:38;12.73;;;9.50;;
18661;SDS011;61528;49.456;11.098;2022-08-27T04:37:04;12.20;;;9.80;;
18661;SDS011;61528;49.456;11.098;2022-08-27T04:39:30;10.97;;;9.43;;
18661;SDS011;61528;49.456;11.098;2022-08-27T04:41:59;11.83;;;9.87;;
18661;SDS011;61528;49.456;11.098;2022-08-27T04:44:27;10.13;;;9.17;;
18661;SDS011;61528;49.456;11.098;2022-08-27T04:46:55;13.27;;;10.23;;
18661;SDS011;61528;49.456;11.098;2022-08-27T04:49:22;11.10;;;9.90;;
18661;SDS011;61528;49.456;11.098;2022-08-27T04:51:49;12.27;;;9.90;;
18661;SDS011;61528;49.456;11.098;2022-08-27T04:54:15;12.53;;;10.90;;
18661;SDS011;61528;49.456;11.098;2022-08-27T04:56:41;11.43;;;10.30;;
18661;SDS011;61528;49.456;11.098;2022-08-27T04:59:07;11.07;;;9.90;;
18661;SDS011;61528;49.456;11.098;2022-08-27T05:01:34;11.03;;;9.93;;
18661;SDS011;61528;49.456;11.098;2022-08-27T05:04:01;9.63;;;8.60;;
18661;SDS011;61528;49.456;11.098;2022-08-27T05:06:28;12.60;;;8.50;;
18661;SDS011;61528;49.456;11.098;2022-08-27T05:08:53;8.00;;;7.20;;
18661;SDS011;61528;49.456;11.098;2022-08-27T05:11:20;8.30;;;7.53;;
18661;SDS011;61528;49.456;11.098;2022-08-27T05:13:47;8.87;;;7.13;;
18661;SDS011;61528;49.456;11.098;2022-08-27T05:16:15;10.17;;;7.77;;
18661;SDS011;61528;49.456;11.098;2022-08-27T05:18:43;9.03;;;8.00;;
18661;SDS011;61528;49.456;11.098;2022-08-27T05:21:14;8.90;;;8.00;;
18661;SDS011;61528;49.456;11.098;2022-08-27T05:24:00;10.67;;;7.83;;
18661;SDS011;61528;49.456;11.098;2022-08-27T05:26:27;9.50;;;8.20;;
18661;SDS011;61528;49.456;11.098;2022-08-27T05:28:54;9.10;;;7.87;;
18661;SDS011;61528;49.456;11.098;2022-08-27T05:31:22;10.97;;;8.50;;
18661;SDS011;61528;49.456;11.098;2022-08-27T05:33:48;10.00;;;8.23;;
18661;SDS011;61528;49.456;11.098;2022-08-27T05:36:24;7.93;;;7.13;;
18661;SDS011;61528;49.456;11.098;2022-08-27T05:38:52;8.80;;;8.00;;
18661;SDS011;61528;49.456;11.098;2022-08-27T05:41:24;9.57;;;8.20;;
18661;SDS011;61528;49.456;11.098;2022-08-27T05:43:52;12.47;;;8.77;;
18661;SDS011;61528;49.456;11.098;2022-08-27T05:46:20;11.00;;;9.20;;
18661;SDS011;61528;49.456;11.098;2022-08-27T05:48:47;9.80;;;7.70;;
18661;SDS011;61528;49.456;11.098;2022-08-27T05:51:15;9.13;;;7.90;;
18661;SDS011;61528;49.456;11.098;2022-08-27T05:53:46;11.87;;;8.87;;
18661;SDS011;61528;49.456;11.098;2022-08-27T05:56:13;9.77;;;8.77;;
18661;SDS011;61528;49.456;11.098;2022-08-27T05:58:45;11.23;;;9.03;;
18661;SDS011;61528;49.456;11.098;2022-08-27T06:01:31;9.73;;;8.73;;
18661;SDS011;61528;49.456;11.098;2022-08-27T06:04:18;11.63;;;8.97;;
18661;SDS011;61528;49.456;11.098;2022-08-27T06:06:46;9.90;;;8.90;;
18661;SDS011;61528;49.456;11.098;2022-08-27T06:09:18;9.77;;;8.57;;
18661;SDS011;61528;49.456;11.098;2022-08-27T06:11:45;11.30;;;8.73;;
18661;SDS011;61528;49.456;11.098;2022-08-27T06:14:12;11.80;;;8.77;;
18661;SDS011;61528;49.456;11.098;2022-08-27T06:16:38;10.60;;;9.37;;
18661;SDS011;61528;49.456;11.098;2022-08-27T06:19:05;11.43;;;9.47;;
18661;SDS011;61528;49.456;11.098;2022-08-27T06:21:32;10.77;;;9.53;;
18661;SDS011;61528;49.456;11.098;2022-08-27T06:23:58;10.33;;;9.23;;
18661;SDS011;61528;49.456;11.098;2022-08-27T06:26:24;10.80;;;9.70;;
18661;SDS011;61528;49.456;11.098;2022-08-27T06:28:51;10.43;;;9.33;;
18661;SDS011;61528;49.456;11.098;2022-08-27T06:31:19;12.13;;;9.53;;
18661;SDS011;61528;49.456;11.098;2022-08-27T06:33:46;13.30;;;10.07;;
18661;SDS011;61528;49.456;11.098;2022-08-27T06:36:15;11.13;;;10.03;;
18661;SDS011;61528;49.456;11.098;2022-08-27T06:38:41;11.63;;;10.43;;
18661;SDS011;61528;49.456;11.098;2022-08-27T06:41:08;15.43;;;11.67;;
18661;SDS011;61528;49.456;11.098;2022-08-27T06:43:36;15.33;;;12.47;;
18661;SDS011;61528;49.456;11.098;2022-08-27T06:46:07;16.47;;;12.90;;
18661;SDS011;61528;49.456;11.098;2022-08-27T06:48:36;15.50;;;13.50;;
18661;SDS011;61528;49.456;11.098;2022-08-27T06:51:09;16.67;;;12.67;;
18661;SDS011;61528;49.456;11.098;2022-08-27T06:53:37;15.23;;;13.37;;
18661;SDS011;61528;49.456;11.098;2022-08-27T06:56:03;14.03;;;12.53;;
18661;SDS011;61528;49.456;11.098;2022-08-27T06:58:29;14.00;;;12.63;;
18661;SDS011;61528;49.456;11.098;2022-08-27T07:00:55;14.47;;;12.97;;
18661;SDS011;61528;49.456;11.098;2022-08-27T07:03:21;14.00;;;12.57;;
18661;SDS011;61528;49.456;11.098;2022-08-27T07:05:47;15.40;;;12.70;;
18661;SDS011;61528;49.456;11.098;2022-08-27T07:08:12;16.47;;;14.47;;
18661;SDS011;61528;49.456;11.098;2022-08-27T07:10:38;18.30;;;14.30;;
18661;SDS011;61528;49.456;11.098;2022-08-27T07:13:04;18.63;;;14.17;;
18661;SDS011;61528;49.456;11.098;2022-08-27T07:15:30;15.57;;;13.77;;
18661;SDS011;61528;49.456;11.098;2022-08-27T07:17:57;18.83;;;15.37;;
18661;SDS011;61528;49.456;11.098;2022-08-27T07:20:22;19.47;;;15.50;;
18661;SDS011;61528;49.456;11.098;2022-08-27T07:22:49;18.03;;;15.03;;
18661;SDS011;61528;49.456;11.098;2022-08-27T07:25:19;18.20;;;14.43;;
18661;SDS011;61528;49.456;11.098;2022-08-27T07:27:46;19.67;;;15.77;;
18661;SDS011;61528;49.456;11.098;2022-08-27T07:30:13;19.93;;;15.10;;
18661;SDS011;61528;49.456;11.098;2022-08-27T07:32:41;25.10;;;17.33;;
18661;SDS011;61528;49.456;11.098;2022-08-27T07:35:10;22.43;;;15.87;;
18661;SDS011;61528;49.456;11.098;2022-08-27T07:37:37;21.57;;;17.20;;
18661;SDS011;61528;49.456;11.098;2022-08-27T07:40:05;23.07;;;16.40;;
18661;SDS011;61528;49.456;11.098;2022-08-27T07:42:33;23.43;;;17.73;;
18661;SDS011;61528;49.456;11.098;2022-08-27T07:45:18;27.10;;;18.07;;
18661;SDS011;61528;49.456;11.098;2022-08-27T07:47:44;25.63;;;18.13;;
18661;SDS011;61528;49.456;11.098;2022-08-27T07:50:11;27.27;;;18.97;;
18661;SDS011;61528;49.456;11.098;2022-08-27T07:52:38;26.40;;;17.77;;
18661;SDS011;61528;49.456;11.098;2022-08-27T07:55:04;22.77;;;16.90;;
18661;SDS011;61528;49.456;11.098;2022-08-27T07:57:31;25.27;;;17.93;;
18661;SDS011;61528;49.456;11.098;2022-08-27T07:59:57;24.03;;;18.47;;
18661;SDS011;61528;49.456;11.098;2022-08-27T08:02:24;23.30;;;17.87;;
18661;SDS011;61528;49.456;11.098;2022-08-27T08:04:51;26.17;;;18.93;;
18661;SDS011;61528;49.456;11.098;2022-08-27T08:07:17;23.03;;;17.20;;
18661;SDS011;61528;49.456;11.098;2022-08-27T08:09:44;24.87;;;17.80;;
18661;SDS011;61528;49.456;11.098;2022-08-27T08:12:10;19.30;;;16.23;;
18661;SDS011;61528;49.456;11.098;2022-08-27T08:14:39;23.47;;;16.80;;
18661;SDS011;61528;49.456;11.098;2022-08-27T08:17:06;21.63;;;16.87;;
18661;SDS011;61528;49.456;11.098;2022-08-27T08:19:32;18.97;;;15.57;;
18661;SDS011;61528;49.456;11.098;2022-08-27T08:21:58;17.90;;;15.27;;
18661;SDS011;61528;49.456;11.098;2022-08-27T08:24:25;20.77;;;16.30;;
18661;SDS011;61528;49.456;11.098;2022-08-27T08:26:51;19.30;;;15.37;;
18661;SDS011;61528;49.456;11.098;2022-08-27T08:29:17;25.83;;;16.90;;
18661;SDS011;61528;49.456;11.098;2022-08-27T08:31:43;20.40;;;15.33;;
18661;SDS011;61528;49.456;11.098;2022-08-27T08:34:09;20.93;;;16.60;;
18661;SDS011;61528;49.456;11.098;2022-08-27T08:36:36;23.97;;;16.63;;
18661;SDS011;61528;49.456;11.098;2022-08-27T08:39:02;20.50;;;15.43;;
18661;SDS011;61528;49.456;11.098;2022-08-27T08:41:42;21.53;;;15.97;;
18661;SDS011;61528;49.456;11.098;2022-08-27T08:44:13;19.37;;;14.93;;
18661;SDS011;61528;49.456;11.098;2022-08-27T08:46:48;22.50;;;15.33;;
18661;SDS011;61528;49.456;11.098;2022-08-27T08:51:45;16.33;;;13.67;;
18661;SDS011;61528;49.456;11.098;2022-08-27T08:54:18;19.03;;;14.07;;
18661;SDS011;61528;49.456;11.098;2022-08-27T08:59:17;16.43;;;13.17;;
18661;SDS011;61528;49.456;11.098;2022-08-27T09:01:44;23.00;;;13.70;;
18661;SDS011;61528;49.456;11.098;2022-08-27T09:04:10;17.80;;;12.83;;
18661;SDS011;61528;49.456;11.098;2022-08-27T09:11:48;13.50;;;11.73;;
18661;SDS011;61528;49.456;11.098;2022-08-27T09:14:33;14.00;;;10.87;;
18661;SDS011;61528;49.456;11.098;2022-08-27T09:17:01;16.83;;;11.70;;
18661;SDS011;61528;49.456;11.098;2022-08-27T09:19:27;15.97;;;11.87;;
18661;SDS011;61528;49.456;11.098;2022-08-27T09:22:02;15.60;;;11.23;;
18661;SDS011;61528;49.456;11.098;2022-08-27T09:24:36;15.13;;;11.50;;
18661;SDS011;61528;49.456;11.098;2022-08-27T09:27:07;14.00;;;11.60;;
18661;SDS011;61528;49.456;11.098;2022-08-27T09:29:44;16.13;;;12.43;;
18661;SDS011;61528;49.456;11.098;2022-08-27T09:32:11;12.83;;;11.03;;
18661;SDS011;61528;49.456;11.098;2022-08-27T09:34:38;14.13;;;10.77;;
18661;SDS011;61528;49.456;11.098;2022-08-27T09:37:16;10.37;;;9.37;;
18661;SDS011;61528;49.456;11.098;2022-08-27T09:40:20;11.77;;;10.30;;
18661;SDS011;61528;49.456;11.098;2022-08-27T09:42:41;10.83;;;9.73;;
18661;SDS011;61528;49.456;11.098;2022-08-27T09:45:09;13.47;;;10.10;;
18661;SDS011;61528;49.456;11.098;2022-08-27T09:47:44;13.90;;;10.77;;
18661;SDS011;61528;49.456;11.098;2022-08-27T09:50:11;13.10;;;11.10;;
18661;SDS011;61528;49.456;11.098;2022-08-27T09:52:59;14.80;;;12.67;;
18661;SDS011;61528;49.456;11.098;2022-08-27T09:57:54;13.83;;;11.70;;
18661;SDS011;61528;49.456;11.098;2022-08-27T10:00:26;14.30;;;11.27;;
18661;SDS011;61528;49.456;11.098;2022-08-27T10:02:53;14.23;;;11.00;;
18661;SDS011;61528;49.456;11.098;2022-08-27T10:05:30;12.77;;;11.47;;
18661;SDS011;61528;49.456;11.098;2022-08-27T10:08:02;13.07;;;11.67;;
18661;SDS011;61528;49.456;11.098;2022-08-27T10:10:36;13.47;;;11.63;;
18661;SDS011;61528;49.456;11.098;2022-08-27T10:13:04;13.13;;;11.73;;
18661;SDS011;61528;49.456;11.098;2022-08-27T10:15:36;12.87;;;10.70;;
18661;SDS011;61528;49.456;11.098;2022-08-27T10:20:43;9.70;;;8.70;;
18661;SDS011;61528;49.456;11.098;2022-08-27T10:33:25;10.30;;;9.27;;
18661;SDS011;61528;49.456;11.098;2022-08-27T10:36:08;13.20;;;10.80;;
18661;SDS011;61528;49.456;11.098;2022-08-27T10:38:39;9.67;;;8.43;;
18661;SDS011;61528;49.456;11.098;2022-08-27T10:41:41;13.80;;;9.43;;
18661;SDS011;61528;49.456;11.098;2022-08-27T10:51:46;7.90;;;7.10;;
18661;SDS011;61528;49.456;11.098;2022-08-27T10:56:45;7.13;;;6.50;;
18661;SDS011;61528;49.456;11.098;2022-08-27T10:59:18;7.37;;;6.77;;
18661;SDS011;61528;49.456;11.098;2022-08-27T11:01:57;5.93;;;5.30;;
18661;SDS011;61528;49.456;11.098;2022-08-27T11:04:32;7.10;;;5.67;;
18661;SDS011;61528;49.456;11.098;2022-08-27T11:07:07;5.97;;;5.20;;
18661;SDS011;61528;49.456;11.098;2022-08-27T11:12:13;4.93;;;4.50;;
18661;SDS011;61528;49.456;11.098;2022-08-27T11:14:54;5.27;;;4.87;;
18661;SDS011;61528;49.456;11.098;2022-08-27T11:22:26;6.03;;;5.10;;
18661;SDS011;61528;49.456;11.098;2022-08-27T11:27:35;5.00;;;4.60;;
18661;SDS011;61528;49.456;11.098;2022-08-27T11:30:07;5.43;;;4.93;;
18661;SDS011;61528;49.456;11.098;2022-08-27T11:32:46;5.57;;;5.10;;
18661;SDS011;61528;49.456;11.098;2022-08-27T11:35:18;5.30;;;4.80;;
18661;SDS011;61528;49.456;11.098;2022-08-27T11:42:53;6.90;;;5.07;;
18661;SDS011;61528;49.456;11.098;2022-08-27T11:45:30;5.50;;;5.00;;
18661;SDS011;61528;49.456;11.098;2022-08-27T11:48:13;5.97;;;4.90;;
18661;SDS011;61528;49.456;11.098;2022-08-27T11:50:40;5.10;;;4.60;;
18661;SDS011;61528;49.456;11.098;2022-08-27T11:53:22;4.63;;;4.33;;
18661;SDS011;61528;49.456;11.098;2022-08-27T11:55:49;5.60;;;4.90;;
18661;SDS011;61528;49.456;11.098;2022-08-27T12:00:43;4.80;;;4.40;;
18661;SDS011;61528;49.456;11.098;2022-08-27T12:03:30;4.57;;;4.17;;
18661;SDS011;61528;49.456;11.098;2022-08-27T12:26:00;4.53;;;3.20;;
18661;SDS011;61528;49.456;11.098;2022-08-27T12:28:39;3.70;;;3.40;;
18661;SDS011;61528;49.456;11.098;2022-08-27T12:31:05;3.60;;;2.73;;
18661;SDS011;61528;49.456;11.098;2022-08-27T12:33:34;3.30;;;3.10;;
18661;SDS011;61528;49.456;11.098;2022-08-27T12:36:17;3.53;;;3.23;;
18661;SDS011;61528;49.456;11.098;2022-08-27T12:38:51;3.77;;;3.47;;
18661;SDS011;61528;49.456;11.098;2022-08-27T12:41:28;3.40;;;3.10;;
18661;SDS011;61528;49.456;11.098;2022-08-27T12:44:05;2.90;;;2.70;;
18661;SDS011;61528;49.456;11.098;2022-08-27T12:46:31;2.90;;;2.70;;
18661;SDS011;61528;49.456;11.098;2022-08-27T12:48:59;3.33;;;3.10;;
18661;SDS011;61528;49.456;11.098;2022-08-27T12:51:29;3.20;;;2.90;;
18661;SDS011;61528;49.456;11.098;2022-08-27T12:59:13;4.57;;;3.40;;
18661;SDS011;61528;49.456;11.098;2022-08-27T13:01:56;3.60;;;3.40;;
18661;SDS011;61528;49.456;11.098;2022-08-27T13:04:24;3.57;;;3.27;;
18661;SDS011;61528;49.456;11.098;2022-08-27T13:06:52;3.13;;;2.93;;
18661;SDS011;61528;49.456;11.098;2022-08-27T13:09:26;3.23;;;2.90;;
18661;SDS011;61528;49.456;11.098;2022-08-27T13:11:53;3.00;;;2.80;;
18661;SDS011;61528;49.456;11.098;2022-08-27T13:14:22;2.90;;;2.70;;
18661;SDS011;61528;49.456;11.098;2022-08-27T13:16:52;3.37;;;3.10;;
18661;SDS011;61528;49.456;11.098;2022-08-27T13:20:01;3.37;;;3.17;;
18661;SDS011;61528;49.456;11.098;2022-08-27T13:22:08;3.13;;;2.93;;
18661;SDS011;61528;49.456;11.098;2022-08-27T13:24:45;3.37;;;3.07;;
18661;SDS011;61528;49.456;11.098;2022-08-27T13:27:12;4.00;;;3.60;;
18661;SDS011;61528;49.456;11.098;2022-08-27T13:29:38;3.70;;;3.40;;
18661;SDS011;61528;49.456;11.098;2022-08-27T13:32:05;3.50;;;3.20;;
18661;SDS011;61528;49.456;11.098;2022-08-27T13:34:36;3.40;;;3.10;;
18661;SDS011;61528;49.456;11.098;2022-08-27T13:37:05;5.70;;;3.20;;
18661;SDS011;61528;49.456;11.098;2022-08-27T13:39:32;3.87;;;3.33;;
18661;SDS011;61528;49.456;11.098;2022-08-27T13:42:00;3.73;;;3.33;;
18661;SDS011;61528;49.456;11.098;2022-08-27T13:44:31;4.13;;;3.83;;
18661;SDS011;61528;49.456;11.098;2022-08-27T13:47:20;3.73;;;3.43;;
18661;SDS011;61528;49.456;11.098;2022-08-27T13:49:45;3.70;;;3.40;;
18661;SDS011;61528;49.456;11.098;2022-08-27T13:52:33;3.50;;;3.27;;
18661;SDS011;61528;49.456;11.098;2022-08-27T13:57:38;4.07;;;3.37;;
18661;SDS011;61528;49.456;11.098;2022-08-27T14:00:47;3.50;;;3.20;;
18661;SDS011;61528;49.456;11.098;2022-08-27T14:02:55;3.50;;;3.20;;
18661;SDS011;61528;49.456;11.098;2022-08-27T14:07:50;3.63;;;3.30;;
18661;SDS011;61528;49.456;11.098;2022-08-27T14:12:43;4.00;;;3.60;;
18661;SDS011;61528;49.456;11.098;2022-08-27T14:15:19;4.23;;;3.83;;
18661;SDS011;61528;49.456;11.098;2022-08-27T14:17:46;6.23;;;4.17;;
18661;SDS011;61528;49.456;11.098;2022-08-27T14:20:13;4.83;;;4.47;;
18661;SDS011;61528;49.456;11.098;2022-08-27T14:22:40;4.60;;;3.90;;
18661;SDS011;61528;49.456;11.098;2022-08-27T14:25:06;5.60;;;4.60;;
18661;SDS011;61528;49.456;11.098;2022-08-27T14:27:34;5.30;;;4.80;;
18661;SDS011;61528;49.456;11.098;2022-08-27T14:30:00;5.80;;;4.97;;
18661;SDS011;61528;49.456;11.098;2022-08-27T14:32:26;4.50;;;4.10;;
18661;SDS011;61528;49.456;11.098;2022-08-27T14:34:53;5.20;;;4.70;;
18661;SDS011;61528;49.456;11.098;2022-08-27T14:37:19;5.33;;;4.90;;
18661;SDS011;61528;49.456;11.098;2022-08-27T14:39:45;6.27;;;4.83;;
18661;SDS011;61528;49.456;11.098;2022-08-27T14:42:11;5.53;;;5.03;;
18661;SDS011;61528;49.456;11.098;2022-08-27T14:44:37;6.30;;;5.17;;
18661;SDS011;61528;49.456;11.098;2022-08-27T14:47:04;5.57;;;4.50;;
18661;SDS011;61528;49.456;11.098;2022-08-27T14:49:32;6.20;;;4.70;;
18661;SDS011;61528;49.456;11.098;2022-08-27T14:51:59;5.70;;;5.20;;
18661;SDS011;61528;49.456;11.098;2022-08-27T14:54:26;5.00;;;4.50;;
18661;SDS011;61528;49.456;11.098;2022-08-27T14:56:53;6.27;;;4.40;;
18661;SDS011;61528;49.456;11.098;2022-08-27T14:59:20;3.40;;;3.10;;
18661;SDS011;61528;49.456;11.098;2022-08-27T15:01:46;3.30;;;3.00;;
18661;SDS011;61528;49.456;11.098;2022-08-27T15:04:13;4.73;;;3.90;;
18661;SDS011;61528;49.456;11.098;2022-08-27T15:06:39;3.50;;;3.20;;
18661;SDS011;61528;49.456;11.098;2022-08-27T15:09:05;4.10;;;3.70;;
18661;SDS011;61528;49.456;11.098;2022-08-27T15:11:32;5.17;;;4.00;;
18661;SDS011;61528;49.456;11.098;2022-08-27T15:13:59;4.57;;;3.53;;
18661;SDS011;61528;49.456;11.098;2022-08-27T15:16:27;3.93;;;3.50;;
18661;SDS011;61528;49.456;11.098;2022-08-27T15:18:53;4.10;;;3.70;;
18661;SDS011;61528;49.456;11.098;2022-08-27T15:21:20;3.30;;;3.00;;
18661;SDS011;61528;49.456;11.098;2022-08-27T15:23:47;3.57;;;3.27;;
18661;SDS011;61528;49.456;11.098;2022-08-27T15:26:14;3.53;;;3.17;;
18661;SDS011;61528;49.456;11.098;2022-08-27T15:28:40;4.33;;;2.90;;
18661;SDS011;61528;49.456;11.098;2022-08-27T15:31:07;3.30;;;3.00;;
18661;SDS011;61528;49.456;11.098;2022-08-27T15:33:33;2.80;;;2.50;;
18661;SDS011;61528;49.456;11.098;2022-08-27T15:35:59;4.17;;;2.73;;
18661;SDS011;61528;49.456;11.098;2022-08-27T15:38:25;3.33;;;2.87;;
18661;SDS011;61528;49.456;11.098;2022-08-27T15:40:52;4.00;;;3.40;;
18661;SDS011;61528;49.456;11.098;2022-08-27T15:43:18;4.47;;;3.03;;
18661;SDS011;61528;49.456;11.098;2022-08-27T15:45:45;3.97;;;2.80;;
18661;SDS011;61528;49.456;11.098;2022-08-27T15:48:11;3.50;;;3.20;;
18661;SDS011;61528;49.456;11.098;2022-08-27T15:50:37;4.10;;;3.30;;
18661;SDS011;61528;49.456;11.098;2022-08-27T15:53:06;3.03;;;2.53;;
18661;SDS011;61528;49.456;11.098;2022-08-27T15:55:37;3.00;;;2.80;;
18661;SDS011;61528;49.456;11.098;2022-08-27T15:58:04;3.00;;;2.80;;
18661;SDS011;61528;49.456;11.098;2022-08-27T16:00:30;3.60;;;3.30;;
18661;SDS011;61528;49.456;11.098;2022-08-27T16:02:58;3.83;;;3.50;;